Time;durP1;ratioP1;P1;durP2;ratioP2;P2;SDS_P1;SDS_P2;PMS_P1;PMS_P2;Temp;Humidity;BMP_temperature;BMP_pressure;BME280_temperature;BME280_humidity;BME280_pressure;Samples;Min_cycle;Max_cycle;Signal;HPM_P1;HPM_P2
2022/09/25 00:02:04;;;;;;;12.07;8.87;;;12.10;99.90;;;;;;5095653;28;20168;-82
2022/09/25 00:04:30;;;;;;;16.50;9.50;;;12.10;99.90;;;;;;5094281;28;20753;-82
2022/09/25 00:06:55;;;;;;;15.60;10.20;;;12.20;99.90;;;;;;5095418;28;20413;-83
2022/09/25 00:09:22;;;;;;;14.40;9.23;;;12.20;99.90;;;;;;5095173;28;20918;-82
2022/09/25 00:11:48;;;;;;;14.77;9.67;;;12.20;99.90;;;;;;5081317;28;20205;-83
2022/09/25 00:14:13;;;;;;;16.87;10.83;;;12.30;99.90;;;;;;5095035;28;21111;-82
2022/09/25 00:16:39;;;;;;;17.23;10.60;;;12.30;99.90;;;;;;5094973;28;20567;-84
2022/09/25 00:21:51;;;;;;;16.40;10.03;;;12.30;99.90;;;;;;5090430;28;20599;-83
2022/09/25 00:24:17;;;;;;;18.50;11.37;;;12.30;99.90;;;;;;5094093;28;20930;-82
2022/09/25 00:26:43;;;;;;;18.50;10.90;;;12.20;99.90;;;;;;5095042;28;20412;-84
2022/09/25 00:29:14;;;;;;;19.00;9.97;;;12.30;99.90;;;;;;5095008;28;20429;-82
2022/09/25 00:31:40;;;;;;;22.57;10.80;;;12.30;99.90;;;;;;5094734;28;20269;-83
2022/09/25 00:34:05;;;;;;;17.43;11.80;;;12.30;99.90;;;;;;5094781;28;20407;-83
2022/09/25 00:36:32;;;;;;;16.50;10.40;;;12.30;99.90;;;;;;5094134;28;20173;-84
2022/09/25 00:38:58;;;;;;;18.77;11.13;;;12.30;99.90;;;;;;5092822;28;20181;-83
2022/09/25 00:41:25;;;;;;;19.23;11.70;;;12.20;99.90;;;;;;5094229;28;20899;-84
2022/09/25 00:43:55;;;;;;;14.90;9.37;;;12.20;99.90;;;;;;5093019;28;20494;-84
2022/09/25 00:46:26;;;;;;;17.73;10.30;;;12.20;99.90;;;;;;5094024;28;20453;-84
2022/09/25 00:49:02;;;;;;;22.13;10.97;;;12.20;99.90;;;;;;5094200;28;20449;-83
2022/09/25 00:51:40;;;;;;;17.07;10.13;;;12.30;99.90;;;;;;5093755;28;20511;-84
2022/09/25 00:54:13;;;;;;;15.10;8.63;;;12.30;99.90;;;;;;5094109;28;20422;-84
2022/09/25 00:56:42;;;;;;;16.90;10.60;;;12.20;99.90;;;;;;5094270;28;20890;-84
2022/09/25 00:59:12;;;;;;;17.47;9.67;;;12.30;99.90;;;;;;5094021;28;20414;-83
2022/09/25 01:01:38;;;;;;;19.00;11.43;;;12.30;99.90;;;;;;5092781;28;20422;-86
2022/09/25 01:04:04;;;;;;;16.73;9.97;;;12.20;99.90;;;;;;5092634;28;20420;-87
2022/09/25 01:06:31;;;;;;;15.90;10.07;;;12.20;99.90;;;;;;5092266;28;20711;-86
2022/09/25 01:08:58;;;;;;;19.90;11.40;;;12.20;99.90;;;;;;5093622;28;20448;-85
2022/09/25 01:11:23;;;;;;;15.17;8.77;;;12.20;99.90;;;;;;5093705;28;20851;-86
2022/09/25 01:13:53;;;;;;;16.27;10.27;;;12.20;99.90;;;;;;5093793;28;20426;-86
2022/09/25 01:16:30;;;;;;;15.33;9.60;;;12.20;99.90;;;;;;5092413;28;20193;-85
2022/09/25 01:18:55;;;;;;;18.17;10.50;;;12.10;99.90;;;;;;5092327;28;20509;-85
2022/09/25 01:21:42;;;;;;;17.07;11.13;;;12.20;99.90;;;;;;5092057;28;20871;-84
2022/09/25 01:24:39;;;;;;;19.83;9.73;;;12.20;99.90;;;;;;5092375;28;20179;-85
2022/09/25 01:27:24;;;;;;;21.57;10.57;;;12.20;99.90;;;;;;5087681;28;20426;-84
2022/09/25 01:30:02;;;;;;;17.07;10.30;;;12.20;99.90;;;;;;5092155;28;20426;-84
2022/09/25 01:32:34;;;;;;;17.47;9.60;;;12.20;99.90;;;;;;5092124;28;20481;-84
2022/09/25 01:35:18;;;;;;;15.50;9.30;;;12.20;99.90;;;;;;5091975;28;20408;-84
2022/09/25 01:37:52;;;;;;;14.43;8.63;;;12.20;99.90;;;;;;5092935;28;20408;-84
2022/09/25 01:40:24;;;;;;;15.63;9.40;;;12.20;99.90;;;;;;5093065;28;20406;-85
2022/09/25 01:42:56;;;;;;;18.27;11.10;;;12.20;99.90;;;;;;5093278;28;20403;-84
2022/09/25 01:45:30;;;;;;;17.80;11.00;;;12.20;99.90;;;;;;5093038;28;20510;-84
2022/09/25 01:47:58;;;;;;;19.50;10.87;;;12.20;99.90;;;;;;5091788;28;20414;-85
2022/09/25 01:50:43;;;;;;;18.77;11.03;;;12.20;99.90;;;;;;5093081;28;20431;-85
2022/09/25 01:53:14;;;;;;;23.40;13.77;;;12.20;99.90;;;;;;5092937;28;20503;-84
2022/09/25 01:55:44;;;;;;;24.23;12.93;;;12.20;99.90;;;;;;5093045;28;20416;-84
2022/09/25 01:58:29;;;;;;;19.97;11.47;;;12.20;99.90;;;;;;5093032;28;20511;-84
2022/09/25 02:01:01;;;;;;;20.47;11.43;;;12.30;99.90;;;;;;5092936;28;20840;-84
2022/09/25 02:03:34;;;;;;;20.77;10.77;;;12.20;99.90;;;;;;5093072;28;21266;-83
2022/09/25 02:06:03;;;;;;;20.10;10.80;;;12.20;99.90;;;;;;5092796;28;20494;-84
2022/09/25 02:08:38;;;;;;;20.83;11.07;;;12.20;99.90;;;;;;5091292;28;20424;-84
2022/09/25 02:11:05;;;;;;;19.80;11.10;;;12.20;99.90;;;;;;5093262;28;20407;-85
2022/09/25 02:13:49;;;;;;;19.20;12.60;;;12.20;99.90;;;;;;5093182;28;20424;-86
2022/09/25 02:16:28;;;;;;;18.13;12.17;;;12.20;99.90;;;;;;5093196;28;20414;-85
2022/09/25 02:21:49;;;;;;;17.37;11.90;;;12.20;99.90;;;;;;5083110;28;20437;-85
2022/09/25 02:24:42;;;;;;;16.70;9.83;;;12.20;99.90;;;;;;5072787;28;20763;-85
2022/09/25 02:27:07;;;;;;;15.47;9.40;;;12.20;99.90;;;;;;5071838;28;20429;-85
2022/09/25 02:29:33;;;;;;;20.33;10.87;;;12.20;99.90;;;;;;5072660;28;20979;-84
2022/09/25 02:32:06;;;;;;;16.77;10.17;;;12.30;99.90;;;;;;5072731;28;20573;-84
2022/09/25 02:34:32;;;;;;;15.67;9.57;;;12.30;99.90;;;;;;5073031;28;20408;-83
2022/09/25 02:36:58;;;;;;;19.60;10.47;;;12.20;99.90;;;;;;5087965;28;20502;-86
2022/09/25 02:39:28;;;;;;;16.40;11.13;;;12.20;99.90;;;;;;5072696;28;20158;-85
2022/09/25 02:42:14;;;;;;;16.43;10.37;;;12.20;99.90;;;;;;5074068;28;20421;-84
2022/09/25 02:44:46;;;;;;;15.80;11.07;;;12.20;99.90;;;;;;5078558;28;20410;-84
2022/09/25 02:47:52;;;;;;;19.40;9.97;;;12.20;99.90;;;;;;5072440;28;20553;-83
2022/09/25 02:50:34;;;;;;;16.27;9.77;;;12.20;99.90;;;;;;5038552;28;20510;-83
2022/09/25 02:53:13;;;;;;;19.87;11.53;;;12.20;99.90;;;;;;5087700;28;20562;-84
2022/09/25 02:55:47;;;;;;;16.23;10.83;;;12.20;99.90;;;;;;5072710;28;20416;-84
2022/09/25 02:58:16;;;;;;;18.00;10.03;;;12.20;99.90;;;;;;5070864;28;20420;-84
2022/09/25 03:00:45;;;;;;;15.83;10.23;;;12.30;99.90;;;;;;5072490;28;20924;-84
2022/09/25 03:03:14;;;;;;;16.20;9.17;;;12.30;99.90;;;;;;5072411;28;20416;-84
2022/09/25 03:05:40;;;;;;;16.30;10.07;;;12.20;99.90;;;;;;5072059;28;20914;-86
2022/09/25 03:10:50;;;;;;;17.53;10.67;;;12.30;99.90;;;;;;5072463;28;20960;-85
2022/09/25 03:13:30;;;;;;;16.03;10.30;;;12.20;99.90;;;;;;5072458;28;20411;-87
2022/09/25 03:15:59;;;;;;;20.83;10.77;;;12.30;99.90;;;;;;5072376;28;20415;-86
2022/09/25 03:18:26;;;;;;;14.67;10.50;;;12.20;99.90;;;;;;5070888;28;20453;-86
2022/09/25 03:20:51;;;;;;;16.00;9.90;;;12.20;99.90;;;;;;5087361;28;20427;-87
2022/09/25 03:23:18;;;;;;;17.20;10.60;;;12.20;99.90;;;;;;5072361;28;20425;-86
2022/09/25 03:25:43;;;;;;;17.07;10.03;;;12.20;99.90;;;;;;5071038;28;20649;-86
2022/09/25 03:28:10;;;;;;;23.70;11.13;;;12.20;99.90;;;;;;5072410;28;20432;-85
2022/09/25 03:30:40;;;;;;;15.70;9.30;;;12.20;99.90;;;;;;5072330;28;20176;-85
2022/09/25 03:33:10;;;;;;;15.03;9.47;;;12.20;99.90;;;;;;5072873;28;20982;-86
2022/09/25 03:35:39;;;;;;;16.60;11.00;;;12.20;99.90;;;;;;5074227;28;20985;-86
2022/09/25 03:38:05;;;;;;;16.67;10.37;;;12.20;99.90;;;;;;5074338;28;20432;-87
2022/09/25 03:40:30;;;;;;;14.40;10.10;;;12.20;99.90;;;;;;5073889;28;20422;-85
2022/09/25 03:42:56;;;;;;;13.57;7.90;;;12.20;99.90;;;;;;5074297;28;20488;-86
2022/09/25 03:45:21;;;;;;;14.87;10.27;;;12.20;99.90;;;;;;5091033;28;20170;-85
2022/09/25 03:47:47;;;;;;;18.40;8.67;;;12.20;99.90;;;;;;5075456;28;20173;-85
2022/09/25 03:50:12;;;;;;;15.20;9.80;;;12.20;99.90;;;;;;5075452;28;20626;-85
2022/09/25 03:52:38;;;;;;;14.73;8.93;;;12.20;99.90;;;;;;5075166;28;20346;-84
2022/09/25 03:55:04;;;;;;;14.47;10.10;;;12.20;99.90;;;;;;5075617;28;20176;-85
2022/09/25 03:57:30;;;;;;;15.23;9.20;;;12.10;99.90;;;;;;5075407;28;20178;-84
2022/09/25 04:00:00;;;;;;;14.70;8.50;;;12.10;99.90;;;;;;5075453;28;20409;-84
2022/09/25 04:02:27;;;;;;;15.80;8.90;;;12.10;99.90;;;;;;5075494;28;20190;-84
2022/09/25 04:04:53;;;;;;;16.60;8.63;;;12.10;99.90;;;;;;5075352;28;20405;-85
2022/09/25 04:07:19;;;;;;;17.80;9.97;;;12.10;99.90;;;;;;5074960;28;20949;-84
2022/09/25 04:09:45;;;;;;;16.80;9.60;;;12.10;99.90;;;;;;5075038;28;20408;-83
2022/09/25 04:12:10;;;;;;;16.40;10.20;;;12.10;99.90;;;;;;5075017;28;20472;-83
2022/09/25 04:14:36;;;;;;;15.43;8.50;;;12.10;99.90;;;;;;5075184;28;20194;-84
2022/09/25 04:17:01;;;;;;;17.90;9.40;;;12.10;99.90;;;;;;5090306;28;20174;-83
2022/09/25 04:19:27;;;;;;;15.60;7.43;;;12.10;99.90;;;;;;5075074;28;20223;-83
2022/09/25 04:21:52;;;;;;;13.43;8.93;;;12.10;99.90;;;;;;5073125;28;20170;-83
2022/09/25 04:27:02;;;;;;;12.37;7.93;;;12.10;99.90;;;;;;5074933;28;20173;-84
2022/09/25 04:29:27;;;;;;;17.37;9.70;;;12.10;99.90;;;;;;5074593;28;20419;-84
2022/09/25 04:34:37;;;;;;;13.97;7.83;;;12.10;99.90;;;;;;5074846;28;20178;-84
2022/09/25 04:37:03;;;;;;;13.17;8.63;;;12.10;99.90;;;;;;5074352;28;20411;-84
2022/09/25 04:39:28;;;;;;;13.50;7.27;;;12.10;99.90;;;;;;5074690;28;20200;-83
2022/09/25 04:41:54;;;;;;;14.57;8.50;;;12.10;99.90;;;;;;5074605;28;20208;-83
2022/09/25 04:44:20;;;;;;;13.97;7.80;;;12.00;99.90;;;;;;5074046;28;20531;-83
2022/09/25 04:46:45;;;;;;;12.63;7.17;;;12.10;99.90;;;;;;5074292;28;20220;-83
2022/09/25 04:49:10;;;;;;;11.27;7.50;;;12.10;99.90;;;;;;5074435;28;20184;-84
2022/09/25 04:51:36;;;;;;;11.20;7.43;;;12.00;99.90;;;;;;5074063;28;20237;-84
2022/09/25 04:54:02;;;;;;;12.57;7.47;;;12.00;99.90;;;;;;5074287;28;20169;-84
2022/09/25 04:56:27;;;;;;;11.97;7.43;;;12.10;99.90;;;;;;5074256;28;20173;-84
2022/09/25 04:58:53;;;;;;;9.70;6.23;;;12.00;99.90;;;;;;5074230;28;20169;-83
2022/09/25 05:01:19;;;;;;;12.17;6.90;;;12.10;99.90;;;;;;5074178;28;20248;-83
2022/09/25 05:03:52;;;;;;;9.70;6.80;;;12.00;99.90;;;;;;5089788;28;20540;-83
2022/09/25 05:06:17;;;;;;;10.87;6.37;;;12.00;99.90;;;;;;5073675;28;20412;-86
2022/09/25 05:08:43;;;;;;;11.33;7.50;;;12.00;99.90;;;;;;5073966;28;20518;-83
2022/09/25 05:11:09;;;;;;;12.50;7.07;;;12.00;99.90;;;;;;5073808;28;20469;-83
2022/09/25 05:13:34;;;;;;;9.60;6.63;;;12.00;99.90;;;;;;5073830;28;20649;-83
2022/09/25 05:16:00;;;;;;;14.47;7.83;;;;;;;;;;5073775;28;20633;-83
2022/09/25 05:18:25;;;;;;;10.30;7.10;;;12.00;99.90;;;;;;5073869;28;20173;-84
2022/09/25 05:20:54;;;;;;;13.70;8.57;;;12.00;99.90;;;;;;5073316;28;20463;-85
2022/09/25 05:23:20;;;;;;;13.63;8.50;;;12.00;99.90;;;;;;5074099;28;20169;-85
2022/09/25 05:26:01;;;;;;;16.67;8.87;;;12.00;99.90;;;;;;5073720;28;20779;-82
2022/09/25 05:28:27;;;;;;;13.43;9.67;;;12.00;99.90;;;;;;5073764;28;20418;-83
2022/09/25 05:30:53;;;;;;;12.80;8.27;;;12.00;99.90;;;;;;5073824;28;20439;-83
2022/09/25 05:33:19;;;;;;;12.30;8.60;;;12.10;99.90;;;;;;5073591;28;20519;-85
2022/09/25 05:35:44;;;;;;;15.60;9.90;;;12.00;99.90;;;;;;5073308;28;20406;-83
2022/09/25 05:38:11;;;;;;;15.40;7.37;;;12.00;99.90;;;;;;5073892;28;20445;-87
2022/09/25 05:40:39;;;;;;;12.07;7.83;;;12.10;99.90;;;;;;5074271;28;20164;-86
2022/09/25 05:43:05;;;;;;;15.20;9.83;;;12.10;99.90;;;;;;5074230;28;20415;-90
2022/09/25 05:45:30;;;;;;;17.70;10.90;;;12.10;99.90;;;;;;5075488;28;20810;-85
2022/09/25 05:48:03;;;;;;;15.43;9.10;;;12.10;99.90;;;;;;5074292;28;20506;-87
2022/09/25 05:50:31;;;;;;;14.10;10.00;;;12.10;99.90;;;;;;5076194;28;20629;-89
2022/09/25 05:52:57;;;;;;;14.87;9.70;;;12.10;99.90;;;;;;5077252;28;20469;-87
2022/09/25 05:55:23;;;;;;;19.97;11.47;;;12.10;99.90;;;;;;5076747;28;20903;-91
2022/09/25 05:57:49;;;;;;;15.40;9.70;;;12.20;99.90;;;;;;5075274;28;20454;-88
2022/09/25 06:00:16;;;;;;;15.00;10.63;;;12.20;99.90;;;;;;5073412;28;20439;-89
2022/09/25 06:02:41;;;;;;;17.93;9.10;;;12.20;99.90;;;;;;5074213;28;20197;-88
2022/09/25 06:05:07;;;;;;;13.93;8.67;;;12.20;99.90;;;;;;5073992;28;20408;-86
2022/09/25 06:07:33;;;;;;;13.87;9.13;;;12.30;99.90;;;;;;5074052;28;20570;-89
2022/09/25 06:09:59;;;;;;;16.50;10.70;;;12.30;99.90;;;;;;5074344;28;20407;-86
2022/09/25 06:12:27;;;;;;;14.13;9.50;;;12.30;99.90;;;;;;5073746;28;20951;-88
2022/09/25 06:14:53;;;;;;;18.43;9.50;;;12.30;99.90;;;;;;5073726;28;20244;-87
2022/09/25 06:17:18;;;;;;;16.13;9.43;;;12.40;99.90;;;;;;5073916;28;20507;-87
2022/09/25 06:19:44;;;;;;;14.20;8.70;;;12.40;99.90;;;;;;5076157;28;20166;-89
2022/09/25 06:22:09;;;;;;;16.30;8.57;;;12.40;99.90;;;;;;5073661;28;20269;-91
2022/09/25 06:24:35;;;;;;;14.47;8.00;;;12.40;99.90;;;;;;5073462;28;20202;-89
2022/09/25 06:27:00;;;;;;;14.40;10.60;;;12.50;99.90;;;;;;5074976;28;20169;-88
2022/09/25 06:29:26;;;;;;;16.37;10.60;;;12.50;99.90;;;;;;5075257;28;20226;-89
2022/09/25 06:31:52;;;;;;;19.00;12.33;;;12.50;99.90;;;;;;5074249;28;20197;-89
2022/09/25 06:34:18;;;;;;;18.73;11.60;;;12.60;99.90;;;;;;5074082;28;20537;-90
2022/09/25 06:36:43;;;;;;;17.77;10.77;;;12.60;99.90;;;;;;5075497;28;20167;-87
2022/09/25 06:39:09;;;;;;;17.73;11.27;;;12.60;99.90;;;;;;5076998;28;20944;-90
2022/09/25 06:41:35;;;;;;;18.73;10.77;;;12.60;99.90;;;;;;5077491;28;20174;-90
2022/09/25 06:44:01;;;;;;;15.93;9.43;;;12.70;99.90;;;;;;5077980;28;20174;-91
2022/09/25 06:46:26;;;;;;;16.43;10.70;;;12.70;99.90;;;;;;5077934;28;20465;-90
2022/09/25 06:48:58;;;;;;;15.50;11.30;;;12.70;99.90;;;;;;5074537;28;20176;-88
2022/09/25 06:51:30;;;;;;;15.03;10.37;;;12.70;99.90;;;;;;5073772;28;20185;-89
2022/09/25 06:53:55;;;;;;;13.23;9.40;;;12.70;99.90;;;;;;5056234;28;20416;-86
2022/09/25 06:56:21;;;;;;;15.53;10.03;;;12.70;99.90;;;;;;5073529;28;20408;-87
2022/09/25 06:58:47;;;;;;;14.47;9.23;;;12.70;99.90;;;;;;5073644;28;20194;-90
2022/09/25 07:01:12;;;;;;;13.30;9.43;;;12.70;99.90;;;;;;5073405;28;20690;-88
2022/09/25 07:03:44;;;;;;;18.27;11.40;;;12.80;99.90;;;;;;5073526;28;20217;-87
2022/09/25 07:06:12;;;;;;;14.60;8.83;;;12.80;99.90;;;;;;5073174;28;20159;-88
2022/09/25 07:08:38;;;;;;;14.87;8.47;;;12.90;99.90;;;;;;5076358;28;20501;-87
2022/09/25 07:11:04;;;;;;;15.07;10.30;;;12.90;99.90;;;;;;5068620;28;20492;-83
2022/09/25 07:13:32;;;;;;;14.60;8.13;;;12.90;99.90;;;;;;5077525;28;20222;-88
2022/09/25 07:15:59;;;;;;;13.60;9.70;;;13.00;99.90;;;;;;5076723;28;20413;-87
2022/09/25 07:18:26;;;;;;;14.60;9.93;;;13.10;99.90;;;;;;5074865;28;20435;-86
2022/09/25 07:20:52;;;;;;;15.03;10.00;;;13.10;99.90;;;;;;5075851;28;20494;-88
2022/09/25 07:23:19;;;;;;;13.70;8.33;;;13.10;99.90;;;;;;5076146;28;20416;-85
2022/09/25 07:25:46;;;;;;;16.07;10.27;;;13.20;99.90;;;;;;5076001;28;20512;-85
2022/09/25 07:28:12;;;;;;;15.10;9.90;;;13.20;99.90;;;;;;5075920;28;20407;-85
2022/09/25 07:30:41;;;;;;;15.63;9.67;;;13.10;99.90;;;;;;5075776;28;20424;-83
2022/09/25 07:33:07;;;;;;;16.40;10.93;;;13.10;99.90;;;;;;5074427;28;20962;-85
2022/09/25 07:35:36;;;;;;;17.93;10.43;;;13.10;99.90;;;;;;5074932;28;20428;-84
2022/09/25 07:38:02;;;;;;;18.40;11.53;;;13.10;99.90;;;;;;5075689;28;20187;-84
2022/09/25 07:40:30;;;;;;;17.70;12.77;;;13.20;99.90;;;;;;5075599;28;20425;-84
2022/09/25 07:42:59;;;;;;;20.03;11.07;;;13.20;99.90;;;;;;5075549;28;20418;-84
2022/09/25 07:45:26;;;;;;;17.47;11.23;;;13.20;99.90;;;;;;5075140;28;20780;-84
2022/09/25 07:47:59;;;;;;;16.93;10.40;;;13.20;99.90;;;;;;5075175;28;20428;-84
2022/09/25 07:50:25;;;;;;;15.27;10.40;;;13.20;99.90;;;;;;5074933;28;20400;-84
2022/09/25 07:52:52;;;;;;;17.10;11.73;;;13.20;99.90;;;;;;5073788;28;20469;-84
2022/09/25 07:55:18;;;;;;;20.57;12.00;;;13.20;99.90;;;;;;5075199;28;20814;-84
2022/09/25 07:57:44;;;;;;;15.83;8.87;;;13.20;99.90;;;;;;5073514;28;20433;-84
2022/09/25 08:00:10;;;;;;;17.40;11.90;;;13.20;99.90;;;;;;5075304;28;20248;-83
2022/09/25 08:02:36;;;;;;;20.40;12.27;;;13.20;99.90;;;;;;5075185;28;20180;-84
2022/09/25 08:05:01;;;;;;;13.80;9.60;;;13.30;99.90;;;;;;5074793;28;20472;-84
2022/09/25 08:07:27;;;;;;;21.20;10.27;;;13.20;99.90;;;;;;5075148;28;20181;-84
2022/09/25 08:09:53;;;;;;;15.90;9.50;;;13.30;99.90;;;;;;5074832;28;20209;-85
2022/09/25 08:12:19;;;;;;;17.60;10.80;;;13.30;99.90;;;;;;5075055;28;20498;-84
2022/09/25 08:14:45;;;;;;;16.20;11.10;;;13.60;99.90;;;;;;5074903;28;20258;-85
2022/09/25 08:17:10;;;;;;;17.43;9.83;;;13.40;99.90;;;;;;5073567;28;20934;-85
2022/09/25 08:19:36;;;;;;;19.67;11.00;;;13.40;99.90;;;;;;5074245;28;20254;-85
2022/09/25 08:22:02;;;;;;;17.83;11.03;;;13.40;99.90;;;;;;5089994;28;20254;-84
2022/09/25 08:24:27;;;;;;;16.03;9.73;;;13.40;99.90;;;;;;5074787;28;20169;-85
2022/09/25 08:26:53;;;;;;;16.70;10.00;;;13.40;99.90;;;;;;5090309;28;20690;-85
2022/09/25 08:29:18;;;;;;;15.10;10.00;;;13.40;99.90;;;;;;5074731;28;20168;-85
2022/09/25 08:31:44;;;;;;;15.43;9.17;;;13.40;99.90;;;;;;5074637;28;20218;-85
2022/09/25 08:34:09;;;;;;;18.00;10.70;;;13.40;99.90;;;;;;5074537;28;20227;-85
2022/09/25 08:36:35;;;;;;;16.70;10.73;;;13.30;99.90;;;;;;5074149;28;20658;-84
2022/09/25 08:39:00;;;;;;;18.37;11.37;;;13.30;99.90;;;;;;5074533;28;20174;-84
2022/09/25 08:41:33;;;;;;;14.30;10.10;;;13.30;99.90;;;;;;5084274;28;20166;-85
2022/09/25 08:44:12;;;;;;;14.90;8.83;;;13.30;99.90;;;;;;5096901;28;20210;-85
2022/09/25 08:49:33;;;;;;;15.10;9.90;;;13.30;99.90;;;;;;5087370;28;20481;-84
2022/09/25 08:52:03;;;;;;;14.37;9.50;;;13.30;99.90;;;;;;5074274;28;20461;-84
2022/09/25 08:54:32;;;;;;;13.50;9.17;;;13.40;99.90;;;;;;5074586;28;20414;-84
2022/09/25 08:57:07;;;;;;;13.70;9.67;;;13.40;99.90;;;;;;5074279;28;20421;-85
2022/09/25 08:59:39;;;;;;;16.10;10.00;;;13.40;99.90;;;;;;5072665;28;20571;-85
2022/09/25 09:02:32;;;;;;;14.83;10.03;;;13.40;99.90;;;;;;5074108;28;20450;-84
2022/09/25 09:05:00;;;;;;;17.03;9.80;;;13.40;99.90;;;;;;5073747;28;20546;-84
2022/09/25 09:07:49;;;;;;;17.77;9.40;;;13.30;99.90;;;;;;5073994;28;20493;-84
2022/09/25 09:10:43;;;;;;;17.27;9.30;;;13.30;99.90;;;;;;5073909;28;20411;-84
2022/09/25 09:13:21;;;;;;;13.57;8.30;;;13.30;99.90;;;;;;5089231;28;20476;-84
2022/09/25 09:15:55;;;;;;;14.37;9.70;;;13.30;99.90;;;;;;5073897;28;20439;-84
2022/09/25 09:18:24;;;;;;;13.80;9.80;;;13.30;99.90;;;;;;5073811;28;20746;-84
2022/09/25 09:21:01;;;;;;;14.90;11.13;;;13.30;99.90;;;;;;5073366;28;20417;-84
2022/09/25 09:23:33;;;;;;;15.33;9.70;;;13.40;99.90;;;;;;5073855;28;20392;-83
2022/09/25 09:26:07;;;;;;;14.80;7.97;;;13.40;99.90;;;;;;5080678;28;20449;-84
2022/09/25 09:28:53;;;;;;;13.03;8.37;;;13.40;99.90;;;;;;5093659;28;20924;-84
2022/09/25 09:31:30;;;;;;;10.23;6.90;;;13.40;99.90;;;;;;5090988;28;20468;-83
2022/09/25 09:34:19;;;;;;;11.23;6.10;;;13.40;99.90;;;;;;5093176;28;20479;-84
2022/09/25 09:36:56;;;;;;;8.23;4.80;;;13.40;99.90;;;;;;5093033;28;20465;-84
2022/09/25 09:39:41;;;;;;;5.33;2.97;;;13.40;99.90;;;;;;5092127;28;20998;-84
2022/09/25 09:42:24;;;;;;;4.67;3.27;;;13.50;99.90;;;;;;5093570;28;20417;-84
2022/09/25 09:45:15;;;;;;;4.20;2.07;;;13.50;99.90;;;;;;5093627;28;20420;-86
2022/09/25 09:47:50;;;;;;;3.70;2.30;;;13.50;99.90;;;;;;5093340;28;20433;-86
2022/09/25 09:50:36;;;;;;;6.40;1.80;;;13.50;99.90;;;;;;5093421;28;20412;-86
2022/09/25 09:53:05;;;;;;;3.80;2.00;;;13.50;99.90;;;;;;5093481;28;20559;-84
2022/09/25 09:55:51;;;;;;;4.53;2.20;;;13.40;99.90;;;;;;5093218;28;20421;-85
2022/09/25 09:58:35;;;;;;;3.80;2.07;;;13.50;99.90;;;;;;5092330;28;20451;-85
2022/09/25 10:01:02;;;;;;;2.57;1.67;;;13.50;99.90;;;;;;5092190;28;20434;-86
2022/09/25 10:03:33;;;;;;;4.20;2.20;;;13.40;99.90;;;;;;5092157;28;20794;-85
2022/09/25 10:06:03;;;;;;;3.93;1.97;;;13.40;99.90;;;;;;5091146;28;20427;-87
2022/09/25 10:08:29;;;;;;;4.80;3.10;;;13.30;99.90;;;;;;5091377;28;20473;-85
2022/09/25 10:10:54;;;;;;;4.57;3.47;;;13.30;99.90;;;;;;5090164;28;20492;-87
2022/09/25 10:13:33;;;;;;;5.87;3.70;;;13.40;99.90;;;;;;5091339;28;20282;-88
2022/09/25 10:16:03;;;;;;;4.70;3.47;;;13.40;99.90;;;;;;5089616;28;20182;-88
2022/09/25 10:18:47;;;;;;;6.60;3.63;;;13.40;99.90;;;;;;5091914;28;20415;-87
2022/09/25 10:21:15;;;;;;;6.00;4.00;;;13.60;99.90;;;;;;5091432;28;20411;-85
2022/09/25 10:24:01;;;;;;;8.07;3.97;;;13.60;99.90;;;;;;5092357;28;20921;-86
2022/09/25 10:26:32;;;;;;;5.90;4.53;;;13.50;99.90;;;;;;5085671;28;20764;-88
2022/09/25 10:28:59;;;;;;;4.40;3.90;;;13.60;99.90;;;;;;5072630;28;20576;-84
2022/09/25 10:31:45;;;;;;;4.57;3.17;;;13.60;99.90;;;;;;5081988;28;20453;-85
2022/09/25 10:34:16;;;;;;;4.03;3.00;;;13.50;99.90;;;;;;5083698;28;20756;-88
2022/09/25 10:36:47;;;;;;;4.27;2.37;;;13.40;99.90;;;;;;5091477;28;20403;-88
2022/09/25 10:39:33;;;;;;;4.03;2.77;;;13.30;99.90;;;;;;5091804;28;20442;-88
2022/09/25 10:42:00;;;;;;;5.00;3.20;;;13.30;99.90;;;;;;5092554;28;20845;-87
2022/09/25 10:44:34;;;;;;;5.30;3.53;;;13.40;99.90;;;;;;5096037;28;20474;-89
2022/09/25 10:50:19;;;;;;;5.53;3.63;;;13.30;99.90;;;;;;5096895;28;20459;-88
2022/09/25 10:52:51;;;;;;;7.00;4.13;;;13.30;99.90;;;;;;5096719;28;20469;-88
2022/09/25 10:55:27;;;;;;;5.80;4.07;;;13.20;99.90;;;;;;5097203;28;20429;-89
2022/09/25 10:58:23;;;;;;;6.10;3.87;;;13.10;99.90;;;;;;5094888;28;20418;-88
2022/09/25 11:00:48;;;;;;;9.70;5.20;;;13.20;99.90;;;;;;5097303;28;20426;-88
2022/09/25 11:03:25;;;;;;;7.77;4.70;;;13.20;99.90;;;;;;5096020;28;20913;-88
2022/09/25 11:06:04;;;;;;;7.10;4.97;;;13.30;99.90;;;;;;5097619;28;20164;-87
2022/09/25 11:08:33;;;;;;;5.73;4.47;;;13.30;99.90;;;;;;5097372;28;20405;-88
2022/09/25 11:11:01;;;;;;;5.03;3.60;;;13.30;99.90;;;;;;5097397;28;20430;-87
2022/09/25 11:13:54;;;;;;;4.33;2.77;;;13.30;99.90;;;;;;5097878;28;20465;-89
2022/09/25 11:16:20;;;;;;;5.70;3.40;;;13.30;99.90;;;;;;5083113;28;20425;-86
2022/09/25 11:18:49;;;;;;;4.40;2.03;;;13.30;99.90;;;;;;5079121;28;20493;-88
2022/09/25 11:21:31;;;;;;;4.83;3.70;;;13.50;99.90;;;;;;5097777;28;20410;-89
2022/09/25 11:24:15;;;;;;;6.60;3.10;;;13.50;99.90;;;;;;5095174;28;20425;-86
2022/09/25 11:27:10;;;;;;;6.20;3.10;;;13.50;99.90;;;;;;5095272;28;20411;-85
2022/09/25 11:29:59;;;;;;;4.57;3.30;;;13.60;99.90;;;;;;5091177;28;20415;-86
2022/09/25 11:32:38;;;;;;;5.00;3.43;;;13.60;99.90;;;;;;5096678;28;20467;-87
2022/09/25 11:35:36;;;;;;;7.10;2.87;;;13.70;99.90;;;;;;5096273;28;20422;-85
2022/09/25 11:38:11;;;;;;;6.10;3.40;;;13.50;99.90;;;;;;5096351;28;20413;-85
2022/09/25 11:41:13;;;;;;;5.90;3.60;;;13.40;99.90;;;;;;5095117;28;20426;-86
2022/09/25 11:43:51;;;;;;;5.30;2.70;;;13.30;99.90;;;;;;5096768;28;20404;-87
2022/09/25 11:46:50;;;;;;;5.83;3.80;;;13.40;99.90;;;;;;5095649;28;20477;-85
2022/09/25 11:49:22;;;;;;;5.23;2.97;;;13.40;99.90;;;;;;5096375;28;20403;-85
2022/09/25 11:52:06;;;;;;;6.80;3.27;;;13.40;99.90;;;;;;5095492;28;20483;-87
2022/09/25 11:54:41;;;;;;;3.30;2.53;;;13.50;99.90;;;;;;5093930;28;20512;-86
2022/09/25 11:57:10;;;;;;;6.27;1.93;;;13.30;99.90;;;;;;5096553;28;20426;-87
2022/09/25 11:59:45;;;;;;;3.50;2.10;;;13.20;99.90;;;;;;5095947;28;20768;-86
2022/09/25 12:02:35;;;;;;;5.00;2.40;;;13.20;99.90;;;;;;5096740;28;20408;-86
2022/09/25 12:05:27;;;;;;;3.00;1.70;;;13.30;99.90;;;;;;5095040;28;20494;-85
2022/09/25 12:08:23;;;;;;;5.60;1.87;;;13.30;99.90;;;;;;5095907;28;20903;-86
2022/09/25 12:11:01;;;;;;;2.70;1.60;;;13.20;99.90;;;;;;5094471;28;20410;-85
2022/09/25 12:13:39;;;;;;;5.33;2.13;;;13.30;99.90;;;;;;5095636;28;20993;-85
2022/09/25 12:16:30;;;;;;;2.60;1.93;;;13.30;99.90;;;;;;5094116;28;20449;-85
2022/09/25 12:19:27;;;;;;;6.63;3.20;;;13.30;99.90;;;;;;5095558;28;20889;-86
2022/09/25 12:22:04;;;;;;;2.80;1.43;;;13.30;99.90;;;;;;5092449;28;20450;-85
2022/09/25 12:24:55;;;;;;;3.83;1.17;;;13.20;99.90;;;;;;5095529;28;20421;-86
2022/09/25 12:27:56;;;;;;;3.77;1.57;;;13.20;99.90;;;;;;5095401;28;20422;-86
2022/09/25 12:30:27;;;;;;;2.30;1.10;;;13.20;99.90;;;;;;5095757;28;20882;-85
2022/09/25 12:33:22;;;;;;;1.70;0.50;;;13.30;99.90;;;;;;5095564;28;20470;-86
2022/09/25 12:35:59;;;;;;;6.03;1.60;;;13.50;99.90;;;;;;5094296;28;20415;-85
2022/09/25 12:38:40;;;;;;;3.23;0.83;;;13.60;99.90;;;;;;5095537;28;20415;-85
2022/09/25 12:41:09;;;;;;;2.57;1.23;;;13.80;99.90;;;;;;5095921;28;20411;-85
2022/09/25 12:43:42;;;;;;;1.93;0.73;;;14.00;99.90;;;;;;5094098;28;20413;-85
2022/09/25 12:46:40;;;;;;;2.93;0.60;;;14.20;99.90;;;;;;5093048;28;21060;-85
2022/09/25 12:49:26;;;;;;;3.63;1.30;;;14.40;99.90;;;;;;5094123;28;20822;-84
2022/09/25 12:51:56;;;;;;;1.40;0.70;;;14.50;99.90;;;;;;5095087;28;20562;-85
2022/09/25 12:54:53;;;;;;;2.83;0.87;;;14.40;99.90;;;;;;5096038;28;20424;-86
2022/09/25 12:57:44;;;;;;;2.70;0.90;;;14.50;99.90;;;;;;5088395;28;20432;-85
2022/09/25 13:00:24;;;;;;;8.27;1.33;;;14.30;99.90;;;;;;5092803;28;20424;-85
2022/09/25 13:03:35;;;;;;;1.70;0.83;;;14.10;99.90;;;;;;5092324;28;20832;-85
2022/09/25 13:06:10;;;;;;;1.97;0.77;;;14.10;99.90;;;;;;5071843;28;20425;-84
2022/09/25 13:08:59;;;;;;;2.97;0.50;;;13.90;99.90;;;;;;5074298;28;20927;-85
2022/09/25 13:11:37;;;;;;;2.03;1.20;;;13.90;99.90;;;;;;5074345;28;20412;-84
2022/09/25 13:14:08;;;;;;;2.30;1.00;;;14.10;99.90;;;;;;5076975;28;20481;-85
2022/09/25 13:16:34;;;;;;;3.40;1.33;;;14.30;99.90;;;;;;5075294;28;20413;-85
2022/09/25 13:19:21;;;;;;;3.60;1.13;;;14.30;99.90;;;;;;5093142;28;20513;-84
2022/09/25 13:21:46;;;;;;;2.93;1.23;;;14.30;99.90;;;;;;5093752;28;20474;-85